Startpagina
METAR-TAF:

METAR-TAF

Vliegvelden :

Châlons-en-Champagne, Frankrijk

breedte: 48-46-34N, lengte: 004-11-04E, hoogte: 179 m

Actueel weer

Dit bericht is 31 minuten geleden gemaakt, om 01:30 UTC
Wind 9 kt uit het noorden
Temperatuur 13°C
Vochtigheid 94%
Druk 1020 hPa
Zicht: 7000 m

METAR: LFOK 240130Z AUTO 35009KT 7000 NSC 13/12 Q1020 TEMPO BKN030TCU

Tijdstip: 04:01 (02:01 UTC)

Verwachting

Dit bericht is 3 uur en het 1 minuten geleden gemaakt, om 23:00 UTC
Verwachting geldig van 24 om 00 UTC tot 24 om 24 UTC
Wind 12 kt uit het noorden
Zicht 10 km of meer
Gebroken wolken op 3000 ft
Kans 30% :
Tijdelijke
van 24 om 00 UTC tot 24 om 09 UTC
Gebroken wolken op 3000 ft, Stapelwolken.
Tijdelijke
van 24 om 09 UTC tot 24 om 19 UTC
Zicht: 3000 m
Gebroken wolken op 3000 ft, Cumulonimbus.
regenbuien
Kans 30% :
Tijdelijke
van 24 om 09 UTC tot 24 om 13 UTC
onweer, regen

TAF: LFOK 232300Z 2400/2424 35012KT 9999 BKN030 PROB30 TEMPO 2400/2409 BKN030TCU TEMPO 2409/2419 3000 SHRA BKN030CB PROB30 TEMPO 2409/2413 TSRA

Waarnemingen en weersverwachtingen van meer dan 4000 vliegvelden (METAR en TAF).

De beschikbare stations zijn de gele en rode punten op de kaart.

Ga met uw muis naar het station om de naam te zien.

Klik dan om waarnemingen en weersverwachtingen te zien.

kaart wijzigen: klik op de groene knoppen met een zwart kruis om in te zoomen, op de groene knop met een streepje om uit te zoomen of op de groene pijlen voor aangrenzende kaarten.


METAR-TAF: